Time;durP1;ratioP1;P1;durP2;ratioP2;P2;SDS_P1;SDS_P2;PMS_P1;PMS_P2;Temp;Humidity;BMP_temperature;BMP_pressure;BME280_temperature;BME280_humidity;BME280_pressure;Samples;Min_cycle;Max_cycle;Signal;HPM_P1;HPM_P2
2022/10/02 00:00:26;;;;;;;6.10;5.50;;;;;;;;;;615670;233;26773;-62
2022/10/02 00:02:55;;;;;;;5.20;4.70;;;;;;;;;;615622;234;26568;-62
2022/10/02 00:05:26;;;;;;;4.30;4.00;;;;;;;;;;615385;234;26578;-62
2022/10/02 00:07:55;;;;;;;6.45;5.65;;;;;;;;;;615608;234;26579;-62
2022/10/02 00:10:24;;;;;;;5.65;5.22;;;;;;;;;;615363;234;26569;-63
2022/10/02 00:12:53;;;;;;;6.65;6.10;;;;;;;;;;615285;234;26522;-62
2022/10/02 00:15:22;;;;;;;4.68;4.35;;;;;;;;;;615604;234;26594;-62
2022/10/02 00:17:51;;;;;;;4.93;4.22;;;;;;;;;;616873;231;26805;-62
2022/10/02 00:20:21;;;;;;;6.30;5.70;;;;;;;;;;616838;232;26809;-62
2022/10/02 00:22:50;;;;;;;6.90;5.93;;;;;;;;;;616414;233;26566;-62
2022/10/02 00:25:20;;;;;;;5.72;5.22;;;;;;;;;;616011;233;26552;-62
2022/10/02 00:28:04;;;;;;;3.97;3.67;;;;;;;;;;615889;233;26589;-62
2022/10/02 00:30:33;;;;;;;3.62;3.22;;;;;;;;;;611625;233;26578;-62
2022/10/02 00:33:02;;;;;;;3.85;3.42;;;;;;;;;;615938;233;26778;-62
2022/10/02 00:35:36;;;;;;;4.65;4.00;;;;;;;;;;615498;233;26869;-62
2022/10/02 00:38:06;;;;;;;4.30;3.75;;;;;;;;;;615297;233;26632;-62
2022/10/02 00:40:36;;;;;;;4.75;4.35;;;;;;;;;;615299;233;26861;-62
2022/10/02 00:43:06;;;;;;;3.53;3.22;;;;;;;;;;615485;233;26842;-62
2022/10/02 00:45:51;;;;;;;4.20;3.90;;;;;;;;;;615372;233;26654;-62
2022/10/02 00:48:25;;;;;;;4.00;3.70;;;;;;;;;;615509;233;26629;-62
2022/10/02 00:51:00;;;;;;;3.75;3.30;;;;;;;;;;615901;233;26614;-62
2022/10/02 00:53:33;;;;;;;4.90;4.53;;;;;;;;;;615747;232;26643;-62
2022/10/02 00:56:04;;;;;;;4.90;4.50;;;;;;;;;;614633;234;26593;-62
2022/10/02 00:58:37;;;;;;;4.90;4.37;;;;;;;;;;615161;234;26593;-62
2022/10/02 01:01:08;;;;;;;4.30;4.00;;;;;;;;;;615019;234;26576;-63
2022/10/02 01:03:39;;;;;;;4.43;4.03;;;;;;;;;;615446;234;26826;-62
2022/10/02 01:06:08;;;;;;;4.55;4.15;;;;;;;;;;615622;234;26565;-62
2022/10/02 01:08:37;;;;;;;3.85;3.55;;;;;;;;;;615666;234;26795;-62
2022/10/02 01:11:06;;;;;;;3.42;3.12;;;;;;;;;;615607;233;26561;-62
2022/10/02 01:13:35;;;;;;;4.00;3.70;;;;;;;;;;615663;234;26931;-62
2022/10/02 01:16:04;;;;;;;4.07;3.78;;;;;;;;;;615663;234;26573;-62
2022/10/02 01:18:32;;;;;;;3.53;3.22;;;;;;;;;;615310;234;26536;-62
2022/10/02 01:21:02;;;;;;;3.97;3.67;;;;;;;;;;615597;233;26578;-62
2022/10/02 01:23:31;;;;;;;3.35;3.12;;;;;;;;;;615307;234;26566;-62
2022/10/02 01:26:00;;;;;;;4.07;3.67;;;;;;;;;;615152;234;26802;-62
2022/10/02 01:28:29;;;;;;;3.12;2.87;;;;;;;;;;616444;231;26581;-62
2022/10/02 01:30:58;;;;;;;3.20;2.90;;;;;;;;;;616981;232;26958;-62
2022/10/02 01:33:28;;;;;;;2.83;2.62;;;;;;;;;;616606;233;26680;-62
2022/10/02 01:35:56;;;;;;;3.33;3.08;;;;;;;;;;616491;233;26579;-62
2022/10/02 01:38:25;;;;;;;3.40;3.20;;;;;;;;;;616307;233;26531;-62
2022/10/02 01:40:54;;;;;;;4.50;3.28;;;;;;;;;;616232;232;26576;-62
2022/10/02 01:43:25;;;;;;;2.85;2.65;;;;;;;;;;616204;233;26579;-62
2022/10/02 01:45:54;;;;;;;3.37;3.05;;;;;;;;;;615936;228;26547;-62
2022/10/02 01:48:25;;;;;;;4.37;3.70;;;;;;;;;;615785;233;26620;-62
2022/10/02 01:50:59;;;;;;;3.40;3.00;;;;;;;;;;615463;233;26621;-62
2022/10/02 01:53:44;;;;;;;3.83;3.20;;;;;;;;;;615330;233;26627;-62
2022/10/02 01:56:15;;;;;;;3.15;2.95;;;;;;;;;;614453;233;26624;-62
2022/10/02 01:58:59;;;;;;;2.90;2.70;;;;;;;;;;615505;233;26597;-62
2022/10/02 02:01:28;;;;;;;3.35;3.10;;;;;;;;;;611482;233;26624;-62
2022/10/02 02:03:57;;;;;;;2.80;2.60;;;;;;;;;;615171;233;26642;-62
2022/10/02 02:06:26;;;;;;;3.35;3.10;;;;;;;;;;615833;234;26540;-62
2022/10/02 02:08:56;;;;;;;3.10;2.90;;;;;;;;;;615819;234;26540;-62
2022/10/02 02:11:25;;;;;;;2.50;2.30;;;;;;;;;;615687;234;26543;-62
2022/10/02 02:13:55;;;;;;;2.55;2.35;;;;;;;;;;616027;233;26887;-62
2022/10/02 02:16:25;;;;;;;2.72;2.40;;;;;;;;;;615684;234;26563;-62
2022/10/02 02:18:54;;;;;;;3.55;2.15;;;;;;;;;;615943;234;26525;-62
2022/10/02 02:21:25;;;;;;;3.00;2.80;;;;;;;;;;615621;234;27104;-62
2022/10/02 02:23:54;;;;;;;3.58;2.80;;;;;;;;;;615810;228;26795;-62
2022/10/02 02:26:23;;;;;;;2.85;2.65;;;;;;;;;;615977;234;26562;-63
2022/10/02 02:28:52;;;;;;;2.60;2.40;;;;;;;;;;616027;233;26859;-62
2022/10/02 02:31:21;;;;;;;3.75;2.17;;;;;;;;;;615923;234;26588;-62
2022/10/02 02:33:50;;;;;;;2.80;2.60;;;;;;;;;;615886;234;26598;-62
2022/10/02 02:36:19;;;;;;;2.47;2.20;;;;;;;;;;615872;234;26541;-62
2022/10/02 02:38:48;;;;;;;2.97;2.60;;;;;;;;;;615877;234;26537;-62
2022/10/02 02:41:17;;;;;;;2.37;2.28;;;;;;;;;;617374;231;26531;-62
2022/10/02 02:43:48;;;;;;;2.50;2.30;;;;;;;;;;616944;233;26871;-62
2022/10/02 02:46:18;;;;;;;2.35;2.15;;;;;;;;;;616338;233;26548;-62
2022/10/02 02:48:46;;;;;;;2.80;2.60;;;;;;;;;;616058;233;26584;-62
2022/10/02 02:51:16;;;;;;;2.28;2.17;;;;;;;;;;615870;233;26958;-62
2022/10/02 02:53:46;;;;;;;2.53;2.33;;;;;;;;;;616031;233;27232;-62
2022/10/02 02:56:14;;;;;;;3.75;2.50;;;;;;;;;;616139;233;26529;-62
2022/10/02 02:58:46;;;;;;;2.40;2.20;;;;;;;;;;615930;233;26638;-62
2022/10/02 03:01:15;;;;;;;2.58;2.37;;;;;;;;;;615578;233;27160;-62
2022/10/02 03:03:44;;;;;;;1.92;1.83;;;;;;;;;;615894;233;26621;-62
2022/10/02 03:06:30;;;;;;;2.50;2.30;;;;;;;;;;615890;232;26973;-62
2022/10/02 03:08:56;;;;;;;2.28;2.17;;;;;;;;;;615598;233;26625;-62
2022/10/02 03:11:32;;;;;;;2.20;2.03;;;;;;;;;;615731;233;26615;-62
2022/10/02 03:14:07;;;;;;;2.00;1.90;;;;;;;;;;615294;233;26659;-62
2022/10/02 03:16:36;;;;;;;2.30;2.20;;;;;;;;;;615518;233;26540;-62
2022/10/02 03:19:06;;;;;;;2.00;1.90;;;;;;;;;;615144;234;26533;-62
2022/10/02 03:21:35;;;;;;;1.90;1.75;;;;;;;;;;615199;234;26635;-62
2022/10/02 03:24:04;;;;;;;2.80;1.92;;;;;;;;;;615321;234;26606;-62
2022/10/02 03:26:35;;;;;;;2.10;2.00;;;;;;;;;;615390;234;26926;-62
2022/10/02 03:29:04;;;;;;;2.12;1.87;;;;;;;;;;615366;234;26582;-62
2022/10/02 03:31:33;;;;;;;2.42;2.22;;;;;;;;;;615452;234;26564;-62
2022/10/02 03:34:02;;;;;;;2.00;1.90;;;;;;;;;;615675;233;26576;-62
2022/10/02 03:36:31;;;;;;;2.50;2.03;;;;;;;;;;615639;234;26579;-62
2022/10/02 03:39:00;;;;;;;2.03;1.92;;;;;;;;;;615641;234;27213;-62
2022/10/02 03:41:29;;;;;;;1.92;1.83;;;;;;;;;;615571;234;26568;-62
2022/10/02 03:43:58;;;;;;;2.35;2.15;;;;;;;;;;615606;234;26896;-62
2022/10/02 03:46:27;;;;;;;2.22;2.10;;;;;;;;;;615542;234;26601;-63
2022/10/02 03:48:56;;;;;;;2.03;1.90;;;;;;;;;;615517;234;26586;-62
2022/10/02 03:51:24;;;;;;;1.98;1.85;;;;;;;;;;616227;231;26581;-62
2022/10/02 03:53:53;;;;;;;2.28;2.08;;;;;;;;;;617024;233;26592;-62
2022/10/02 03:56:34;;;;;;;1.70;1.60;;;;;;;;;;616672;233;26818;-62
2022/10/02 03:59:03;;;;;;;1.77;1.67;;;;;;;;;;616368;233;26819;-62
2022/10/02 04:01:32;;;;;;;1.90;1.80;;;;;;;;;;616042;233;26583;-62
2022/10/02 04:04:01;;;;;;;1.98;1.77;;;;;;;;;;615933;233;26583;-62
2022/10/02 04:06:31;;;;;;;2.05;1.80;;;;;;;;;;616008;233;26826;-62
2022/10/02 04:09:00;;;;;;;1.87;1.77;;;;;;;;;;615448;233;26567;-62
2022/10/02 04:11:30;;;;;;;1.83;1.73;;;;;;;;;;615750;233;26831;-62
2022/10/02 04:14:14;;;;;;;1.62;1.52;;;;;;;;;;615822;233;26645;-62
2022/10/02 04:16:44;;;;;;;1.95;1.85;;;;;;;;;;615766;233;26621;-62
2022/10/02 04:19:14;;;;;;;2.00;1.90;;;;;;;;;;615531;233;27449;-62
2022/10/02 04:21:43;;;;;;;2.10;1.70;;;;;;;;;;615591;233;26623;-62
2022/10/02 04:24:27;;;;;;;1.90;1.70;;;;;;;;;;615648;233;26651;-62
2022/10/02 04:26:59;;;;;;;2.35;2.15;;;;;;;;;;605386;227;26666;-62
2022/10/02 04:29:28;;;;;;;1.75;1.65;;;;;;;;;;615430;234;26794;-61
2022/10/02 04:32:01;;;;;;;1.75;1.52;;;;;;;;;;615284;234;26561;-61
2022/10/02 04:34:30;;;;;;;1.80;1.70;;;;;;;;;;615136;234;26589;-61
2022/10/02 04:37:14;;;;;;;1.73;1.62;;;;;;;;;;615661;234;26970;-61
2022/10/02 04:39:46;;;;;;;1.80;1.70;;;;;;;;;;614645;234;26578;-61
2022/10/02 04:42:20;;;;;;;2.15;2.05;;;;;;;;;;615191;234;26561;-67
2022/10/02 04:44:49;;;;;;;1.90;1.70;;;;;;;;;;615709;234;26563;-68
2022/10/02 04:47:18;;;;;;;1.70;1.60;;;;;;;;;;615385;234;26563;-68
2022/10/02 04:49:48;;;;;;;1.70;1.55;;;;;;;;;;615321;234;26532;-68
2022/10/02 04:52:27;;;;;;;1.70;1.60;;;;;;;;;;615530;234;26556;-68
2022/10/02 04:54:59;;;;;;;2.03;1.80;;;;;;;;;;615635;234;27013;-68
2022/10/02 04:57:33;;;;;;;1.80;1.70;;;;;;;;;;615436;234;26531;-68
2022/10/02 05:00:02;;;;;;;1.55;1.50;;;;;;;;;;616003;234;26533;-68
2022/10/02 05:02:34;;;;;;;1.90;1.80;;;;;;;;;;615908;231;26528;-68
2022/10/02 05:05:12;;;;;;;1.80;1.70;;;;;;;;;;616804;231;26974;-68
2022/10/02 05:07:59;;;;;;;1.60;1.50;;;;;;;;;;616664;232;26630;-68
2022/10/02 05:10:31;;;;;;;1.70;1.60;;;;;;;;;;615019;233;26539;-68
2022/10/02 05:13:00;;;;;;;1.60;1.50;;;;;;;;;;615859;233;26825;-68
2022/10/02 05:15:39;;;;;;;1.45;1.25;;;;;;;;;;615602;233;26555;-68
2022/10/02 05:18:14;;;;;;;1.60;1.50;;;;;;;;;;615830;233;26803;-68
2022/10/02 05:20:43;;;;;;;1.77;1.45;;;;;;;;;;616071;232;26572;-68
2022/10/02 05:23:18;;;;;;;1.50;1.40;;;;;;;;;;615382;233;26865;-68
2022/10/02 05:26:04;;;;;;;1.50;1.40;;;;;;;;;;615804;233;26646;-68
2022/10/02 05:28:43;;;;;;;2.15;1.42;;;;;;;;;;615541;233;26639;-68
2022/10/02 05:31:27;;;;;;;1.73;1.62;;;;;;;;;;615539;233;26623;-68
2022/10/02 05:33:56;;;;;;;1.85;1.70;;;;;;;;;;605442;233;27295;-68
2022/10/02 05:36:30;;;;;;;1.65;1.55;;;;;;;;;;615221;233;26600;-68
2022/10/02 05:39:00;;;;;;;1.62;1.52;;;;;;;;;;615411;233;26649;-68
2022/10/02 05:41:30;;;;;;;1.40;1.30;;;;;;;;;;615515;234;26595;-68
2022/10/02 05:44:17;;;;;;;2.00;1.48;;;;;;;;;;615139;234;26601;-68
2022/10/02 05:46:46;;;;;;;1.40;1.30;;;;;;;;;;615493;234;26549;-68
2022/10/02 05:49:17;;;;;;;1.60;1.50;;;;;;;;;;615314;234;26803;-68
2022/10/02 05:51:49;;;;;;;1.75;1.62;;;;;;;;;;615518;234;26560;-68
2022/10/02 05:54:16;;;;;;;1.70;1.60;;;;;;;;;;615305;234;26596;-68
2022/10/02 05:56:47;;;;;;;1.45;1.35;;;;;;;;;;615255;234;26588;-68
2022/10/02 05:59:21;;;;;;;1.25;1.25;;;;;;;;;;615197;234;26586;-68
2022/10/02 06:01:50;;;;;;;1.50;1.40;;;;;;;;;;615211;234;26557;-68
2022/10/02 06:04:18;;;;;;;1.50;1.40;;;;;;;;;;615527;234;26603;-68
2022/10/02 06:06:50;;;;;;;1.75;1.52;;;;;;;;;;615341;228;26569;-68
2022/10/02 06:09:17;;;;;;;1.45;1.35;;;;;;;;;;615842;234;26554;-68
2022/10/02 06:11:46;;;;;;;1.60;1.50;;;;;;;;;;615771;234;26549;-68
2022/10/02 06:14:32;;;;;;;1.33;1.23;;;;;;;;;;616201;231;26551;-68
2022/10/02 06:17:01;;;;;;;1.40;1.30;;;;;;;;;;616025;233;26571;-69
2022/10/02 06:19:34;;;;;;;1.52;1.42;;;;;;;;;;616738;233;26613;-67
2022/10/02 06:22:03;;;;;;;2.92;1.58;;;;;;;;;;616205;233;26559;-67
2022/10/02 06:24:34;;;;;;;1.50;1.40;;;;;;;;;;615966;233;26847;-67
2022/10/02 06:27:03;;;;;;;2.90;1.55;;;;;;;;;;615928;233;26781;-66
2022/10/02 06:29:34;;;;;;;1.40;1.30;;;;;;;;;;615932;233;26806;-67
2022/10/02 06:32:03;;;;;;;1.37;1.20;;;;;;;;;;615810;233;26793;-67
2022/10/02 06:34:31;;;;;;;1.85;1.45;;;;;;;;;;615166;233;26662;-67
2022/10/02 06:37:13;;;;;;;4.53;1.65;;;;;;;;;;615906;233;26632;-67
2022/10/02 06:39:48;;;;;;;2.03;1.67;;;;;;;;;;615573;233;27238;-67
2022/10/02 06:42:32;;;;;;;2.97;1.70;;;;;;;;;;615978;228;26631;-67
2022/10/02 06:45:05;;;;;;;1.62;1.48;;;;;;;;;;605453;233;26595;-67
2022/10/02 06:47:47;;;;;;;2.05;1.60;;;;;;;;;;615422;233;26630;-67
2022/10/02 06:50:20;;;;;;;1.65;1.52;;;;;;;;;;615450;233;26853;-67
2022/10/02 06:52:51;;;;;;;3.50;1.75;;;;;;;;;;615145;234;26656;-68
2022/10/02 06:55:23;;;;;;;3.62;1.40;;;;;;;;;;615145;234;26570;-67
2022/10/02 06:58:06;;;;;;;2.80;1.70;;;;;;;;;;614974;234;26568;-67
2022/10/02 07:00:36;;;;;;;1.95;1.60;;;;;;;;;;615234;234;26946;-67
2022/10/02 07:03:15;;;;;;;4.75;1.85;;;;;;;;;;615177;234;26793;-67
2022/10/02 07:05:55;;;;;;;1.87;1.27;;;;;;;;;;614927;228;26572;-66
2022/10/02 07:08:30;;;;;;;2.47;1.45;;;;;;;;;;609916;234;26610;-66
2022/10/02 07:11:05;;;;;;;13.10;1.80;;;;;;;;;;616047;231;26615;-66
2022/10/02 07:13:35;;;;;;;1.55;1.42;;;;;;;;;;615082;234;26753;-66
2022/10/02 07:16:07;;;;;;;5.82;1.55;;;;;;;;;;613003;234;27138;-66
2022/10/02 07:18:33;;;;;;;2.17;1.75;;;;;;;;;;613795;234;26573;-66
2022/10/02 07:21:18;;;;;;;1.58;1.40;;;;;;;;;;613839;234;26843;-66
2022/10/02 07:23:50;;;;;;;3.37;1.77;;;;;;;;;;612547;230;26664;-66
2022/10/02 07:26:25;;;;;;;4.43;1.30;;;;;;;;;;618713;230;26961;-66
2022/10/02 07:28:54;;;;;;;2.00;1.52;;;;;;;;;;617335;231;26632;-66
2022/10/02 07:31:24;;;;;;;2.05;1.55;;;;;;;;;;621582;230;26629;-66
2022/10/02 07:33:53;;;;;;;1.67;1.58;;;;;;;;;;613448;233;26576;-66
2022/10/02 07:36:26;;;;;;;1.30;1.20;;;;;;;;;;618196;231;26597;-66
2022/10/02 07:38:56;;;;;;;2.62;1.40;;;;;;;;;;616184;231;26614;-66
2022/10/02 07:41:31;;;;;;;2.20;1.70;;;;;;;;;;615299;233;26579;-66
2022/10/02 07:44:03;;;;;;;3.83;1.60;;;;;;;;;;620581;230;26633;-70
2022/10/02 07:46:32;;;;;;;16.75;2.08;;;;;;;;;;622184;230;26574;-70
2022/10/02 07:49:02;;;;;;;8.30;1.80;;;;;;;;;;615451;231;26798;-70
2022/10/02 07:54:17;;;;;;;5.55;1.75;;;;;;;;;;614528;231;26839;-69
2022/10/02 07:56:45;;;;;;;3.65;1.90;;;;;;;;;;613795;233;26632;-70
2022/10/02 07:59:15;;;;;;;6.25;1.55;;;;;;;;;;615182;231;26631;-67
2022/10/02 08:01:43;;;;;;;9.88;2.08;;;;;;;;;;613494;231;26580;-66
2022/10/02 08:04:13;;;;;;;17.98;3.15;;;;;;;;;;614684;233;26579;-71
2022/10/02 08:06:43;;;;;;;24.60;3.25;;;;;;;;;;620785;231;26619;-71
2022/10/02 08:09:11;;;;;;;8.57;1.90;;;;;;;;;;617080;231;26814;-71
2022/10/02 08:11:40;;;;;;;3.83;1.30;;;;;;;;;;614464;231;26585;-71
2022/10/02 08:14:10;;;;;;;2.53;1.48;;;;;;;;;;615556;231;26799;-71
2022/10/02 08:16:39;;;;;;;7.75;1.90;;;;;;;;;;617140;231;26804;-71
2022/10/02 08:19:11;;;;;;;5.50;1.80;;;;;;;;;;615012;231;26870;-70
2022/10/02 08:21:40;;;;;;;5.57;1.80;;;;;;;;;;614277;231;26571;-71
2022/10/02 08:24:13;;;;;;;4.32;1.70;;;;;;;;;;613167;234;26598;-70
2022/10/02 08:26:42;;;;;;;2.30;1.75;;;;;;;;;;614310;234;26567;-71
2022/10/02 08:29:14;;;;;;;4.55;1.75;;;;;;;;;;613154;234;26584;-70
2022/10/02 08:31:43;;;;;;;7.68;1.87;;;;;;;;;;615844;231;26815;-70
2022/10/02 08:34:12;;;;;;;4.05;1.85;;;;;;;;;;618460;231;26656;-70
2022/10/02 08:36:58;;;;;;;4.43;1.83;;;;;;;;;;616592;231;26832;-70
2022/10/02 08:39:30;;;;;;;6.57;2.00;;;;;;;;;;614857;230;26591;-70
2022/10/02 08:42:04;;;;;;;3.22;2.00;;;;;;;;;;620266;231;26576;-70
2022/10/02 08:44:52;;;;;;;2.33;2.00;;;;;;;;;;613879;233;26816;-70
2022/10/02 08:47:21;;;;;;;2.22;1.60;;;;;;;;;;611513;230;26582;-70
2022/10/02 08:49:51;;;;;;;3.28;1.70;;;;;;;;;;614732;230;26814;-71
2022/10/02 08:52:20;;;;;;;3.60;2.37;;;;;;;;;;616704;230;26625;-70
2022/10/02 08:54:51;;;;;;;5.57;2.60;;;;;;;;;;614673;230;26609;-70
2022/10/02 08:57:19;;;;;;;8.45;2.53;;;;;;;;;;614673;231;26521;-71
2022/10/02 08:59:54;;;;;;;5.47;2.20;;;;;;;;;;612621;233;26536;-70
2022/10/02 09:02:27;;;;;;;3.12;1.67;;;;;;;;;;613827;233;26541;-70
2022/10/02 09:04:59;;;;;;;3.20;2.12;;;;;;;;;;613186;232;26576;-70
2022/10/02 09:07:43;;;;;;;3.58;2.08;;;;;;;;;;617121;231;26771;-70
2022/10/02 09:10:17;;;;;;;3.05;1.90;;;;;;;;;;608325;230;26577;-70
2022/10/02 09:13:01;;;;;;;2.90;1.87;;;;;;;;;;619189;230;26524;-71
2022/10/02 09:15:36;;;;;;;7.05;2.08;;;;;;;;;;617980;231;26587;-71
2022/10/02 09:18:10;;;;;;;5.95;3.08;;;;;;;;;;621135;231;26620;-70
2022/10/02 09:20:41;;;;;;;4.43;2.40;;;;;;;;;;618213;231;26836;-71
2022/10/02 09:23:16;;;;;;;2.83;2.20;;;;;;;;;;617120;231;27222;-70
2022/10/02 09:25:52;;;;;;;4.12;1.75;;;;;;;;;;623272;231;26607;-70
2022/10/02 09:28:38;;;;;;;3.97;2.17;;;;;;;;;;613976;231;26568;-70
2022/10/02 09:31:23;;;;;;;6.72;2.50;;;;;;;;;;607396;234;26641;-70
2022/10/02 09:33:58;;;;;;;5.60;2.62;;;;;;;;;;623063;230;27215;-70
2022/10/02 09:36:29;;;;;;;3.85;2.20;;;;;;;;;;617561;231;27231;-70
2022/10/02 09:39:02;;;;;;;5.35;2.30;;;;;;;;;;612504;234;26572;-70
2022/10/02 09:41:36;;;;;;;7.25;2.60;;;;;;;;;;614672;231;26581;-71
2022/10/02 09:44:06;;;;;;;3.47;2.58;;;;;;;;;;613127;231;26814;-71
2022/10/02 09:46:37;;;;;;;4.30;2.35;;;;;;;;;;612602;231;26620;-70
2022/10/02 09:49:25;;;;;;;3.95;2.20;;;;;;;;;;614989;231;26581;-70
2022/10/02 09:52:00;;;;;;;4.22;2.50;;;;;;;;;;606567;234;26674;-68
2022/10/02 09:54:33;;;;;;;10.93;2.75;;;;;;;;;;614761;233;26656;-69
2022/10/02 09:57:05;;;;;;;11.98;2.62;;;;;;;;;;613465;233;26804;-71
2022/10/02 09:59:35;;;;;;;90.75;22.75;;;;;;;;;;615131;233;26562;-73
2022/10/02 10:02:04;;;;;;;1999.90;562.47;;;;;;;;;;614506;233;26559;-75
2022/10/02 10:04:37;;;;;;;1999.90;725.92;;;;;;;;;;613947;233;26642;-71
2022/10/02 10:07:22;;;;;;;142.57;37.97;;;;;;;;;;613531;233;26622;-68
2022/10/02 10:09:52;;;;;;;117.13;35.47;;;;;;;;;;614474;230;26623;-68
2022/10/02 10:12:21;;;;;;;93.68;30.27;;;;;;;;;;616906;230;26593;-69
2022/10/02 10:14:56;;;;;;;70.22;25.27;;;;;;;;;;614678;231;26927;-70
2022/10/02 10:17:42;;;;;;;57.60;23.33;;;;;;;;;;616217;230;26576;-70
2022/10/02 10:20:13;;;;;;;57.90;19.05;;;;;;;;;;613976;231;26652;-69
2022/10/02 10:22:47;;;;;;;46.75;17.95;;;;;;;;;;611767;234;26559;-70
2022/10/02 10:25:17;;;;;;;43.95;16.17;;;;;;;;;;612033;234;26626;-70
2022/10/02 10:27:49;;;;;;;40.65;14.23;;;;;;;;;;612017;232;26580;-70
2022/10/02 10:30:34;;;;;;;34.90;13.65;;;;;;;;;;611763;235;26860;-69
2022/10/02 10:33:08;;;;;;;29.08;11.52;;;;;;;;;;604635;234;26628;-69
2022/10/02 10:35:52;;;;;;;34.17;10.57;;;;;;;;;;611884;235;26990;-69
2022/10/02 10:41:15;;;;;;;21.67;9.35;;;;;;;;;;612518;234;26574;-69
2022/10/02 10:43:49;;;;;;;22.85;8.93;;;;;;;;;;609050;235;26651;-70
2022/10/02 10:46:19;;;;;;;24.10;7.90;;;;;;;;;;611718;235;26608;-69
2022/10/02 10:48:55;;;;;;;20.95;9.10;;;;;;;;;;611955;234;26560;-69
2022/10/02 10:51:29;;;;;;;18.40;7.82;;;;;;;;;;612442;234;26620;-69
2022/10/02 10:54:13;;;;;;;16.35;6.70;;;;;;;;;;612397;235;26636;-69
2022/10/02 10:56:44;;;;;;;16.15;6.85;;;;;;;;;;612120;235;26571;-70
2022/10/02 10:59:32;;;;;;;12.00;6.05;;;;;;;;;;612355;235;26635;-69
2022/10/02 11:02:04;;;;;;;13.62;6.15;;;;;;;;;;610481;233;26591;-69
2022/10/02 11:04:51;;;;;;;13.15;5.65;;;;;;;;;;612920;234;26898;-70
2022/10/02 11:07:21;;;;;;;10.75;5.28;;;;;;;;;;612466;234;27232;-71
2022/10/02 11:09:51;;;;;;;13.62;5.47;;;;;;;;;;612747;234;26581;-70
2022/10/02 11:12:24;;;;;;;8.23;4.95;;;;;;;;;;612809;234;26616;-70
2022/10/02 11:14:53;;;;;;;8.82;4.35;;;;;;;;;;612695;234;26635;-70
2022/10/02 11:17:33;;;;;;;8.88;4.43;;;;;;;;;;612581;235;26615;-70
2022/10/02 11:20:07;;;;;;;7.87;4.03;;;;;;;;;;612800;234;26562;-69
2022/10/02 11:22:37;;;;;;;7.03;3.72;;;;;;;;;;612471;234;26544;-70
2022/10/02 11:25:22;;;;;;;6.43;3.40;;;;;;;;;;612740;234;26556;-70
2022/10/02 11:27:57;;;;;;;7.37;3.15;;;;;;;;;;612020;235;26806;-69
2022/10/02 11:30:25;;;;;;;8.02;3.05;;;;;;;;;;613159;233;26519;-69
2022/10/02 11:32:59;;;;;;;6.18;3.12;;;;;;;;;;612767;234;26531;-69
2022/10/02 11:35:47;;;;;;;3.75;2.62;;;;;;;;;;612664;234;26762;-69
2022/10/02 11:38:22;;;;;;;6.22;2.92;;;;;;;;;;604817;234;26825;-70
2022/10/02 11:40:53;;;;;;;4.70;3.05;;;;;;;;;;612423;235;26626;-70
2022/10/02 11:43:27;;;;;;;3.15;2.60;;;;;;;;;;612138;235;26681;-69
2022/10/02 11:45:59;;;;;;;3.92;2.85;;;;;;;;;;612110;233;26822;-69
2022/10/02 11:48:26;;;;;;;4.97;2.90;;;;;;;;;;612105;235;26572;-69
2022/10/02 11:50:55;;;;;;;3.80;2.83;;;;;;;;;;611851;235;26615;-69
2022/10/02 11:53:33;;;;;;;5.60;2.33;;;;;;;;;;612012;235;26608;-69
2022/10/02 11:56:02;;;;;;;3.45;2.60;;;;;;;;;;612117;235;26620;-70
2022/10/02 11:58:40;;;;;;;5.45;2.72;;;;;;;;;;611885;235;26623;-69
2022/10/02 12:01:05;;;;;;;4.40;2.70;;;;;;;;;;611906;235;26617;-70
2022/10/02 12:03:51;;;;;;;5.07;2.60;;;;;;;;;;612242;235;26652;-70
2022/10/02 12:06:40;;;;;;;3.53;2.10;;;;;;;;;;609126;234;26583;-69
2022/10/02 12:09:08;;;;;;;4.00;2.15;;;;;;;;;;604458;234;26646;-70
2022/10/02 12:11:39;;;;;;;3.42;2.22;;;;;;;;;;612244;235;26610;-69
2022/10/02 12:14:13;;;;;;;5.28;2.47;;;;;;;;;;613894;232;26829;-70
2022/10/02 12:16:43;;;;;;;3.50;2.28;;;;;;;;;;613271;234;26785;-69
2022/10/02 12:19:17;;;;;;;6.30;2.30;;;;;;;;;;613233;233;26576;-69
2022/10/02 12:27:14;;;;;;;3.33;2.30;;;;;;;;;;613080;235;26611;-69
2022/10/02 12:29:45;;;;;;;3.55;2.50;;;;;;;;;;612954;234;26855;-69
2022/10/02 12:32:17;;;;;;;5.90;2.60;;;;;;;;;;612729;234;26542;-69
2022/10/02 12:34:47;;;;;;;5.50;2.62;;;;;;;;;;612825;234;26560;-69
2022/10/02 12:37:18;;;;;;;4.68;2.72;;;;;;;;;;612856;234;26544;-69
2022/10/02 12:39:49;;;;;;;3.78;2.60;;;;;;;;;;612843;234;26777;-69
2022/10/02 12:42:25;;;;;;;4.25;2.45;;;;;;;;;;612722;234;26535;-69
2022/10/02 12:44:57;;;;;;;3.90;2.50;;;;;;;;;;613033;234;26609;-69
2022/10/02 12:47:27;;;;;;;5.32;2.70;;;;;;;;;;612555;234;26787;-70
2022/10/02 12:50:15;;;;;;;2.25;2.05;;;;;;;;;;612160;235;26855;-70
2022/10/02 12:52:58;;;;;;;4.93;2.35;;;;;;;;;;604868;234;26601;-69
2022/10/02 12:55:28;;;;;;;2.58;2.25;;;;;;;;;;604790;234;26916;-69
2022/10/02 12:57:59;;;;;;;3.35;2.37;;;;;;;;;;611922;235;26655;-69
2022/10/02 13:00:28;;;;;;;3.42;2.20;;;;;;;;;;612086;235;26842;-69
2022/10/02 13:03:04;;;;;;;5.62;2.50;;;;;;;;;;612429;231;26619;-70
2022/10/02 13:05:47;;;;;;;2.25;2.05;;;;;;;;;;615376;230;26545;-70
2022/10/02 13:08:17;;;;;;;4.22;2.10;;;;;;;;;;611008;231;26653;-70
2022/10/02 13:10:46;;;;;;;3.37;2.00;;;;;;;;;;615460;231;26584;-71
2022/10/02 13:13:16;;;;;;;2.30;2.10;;;;;;;;;;614091;234;27132;-70
2022/10/02 13:15:46;;;;;;;4.53;2.45;;;;;;;;;;615435;231;26554;-70
2022/10/02 13:18:32;;;;;;;3.15;1.95;;;;;;;;;;617066;231;26624;-70
2022/10/02 13:21:04;;;;;;;5.37;2.53;;;;;;;;;;614811;231;26646;-70
2022/10/02 13:23:34;;;;;;;2.78;2.20;;;;;;;;;;616052;231;26569;-70
2022/10/02 13:26:10;;;;;;;2.28;1.80;;;;;;;;;;616771;231;26557;-70
2022/10/02 13:28:51;;;;;;;3.80;1.80;;;;;;;;;;619779;229;26573;-71
2022/10/02 13:31:37;;;;;;;2.30;1.90;;;;;;;;;;615806;231;26543;-71
2022/10/02 13:34:06;;;;;;;3.90;1.62;;;;;;;;;;616240;230;26869;-71
2022/10/02 13:36:36;;;;;;;2.87;1.98;;;;;;;;;;615854;231;26588;-70
2022/10/02 13:39:06;;;;;;;3.30;1.60;;;;;;;;;;615933;231;26622;-71
2022/10/02 13:41:37;;;;;;;3.50;1.73;;;;;;;;;;618515;230;26606;-71
2022/10/02 13:44:18;;;;;;;2.62;1.85;;;;;;;;;;614786;231;26607;-70
2022/10/02 13:46:53;;;;;;;3.70;1.90;;;;;;;;;;615825;231;26559;-70
2022/10/02 13:49:36;;;;;;;4.95;1.65;;;;;;;;;;618376;230;26539;-71
2022/10/02 13:52:08;;;;;;;3.53;1.80;;;;;;;;;;609800;233;26667;-70
2022/10/02 13:54:53;;;;;;;5.12;2.03;;;;;;;;;;615918;228;26597;-70
2022/10/02 13:57:21;;;;;;;3.70;1.50;;;;;;;;;;618297;230;26578;-67
2022/10/02 13:59:54;;;;;;;6.80;2.05;;;;;;;;;;621133;231;26558;-68
2022/10/02 14:02:27;;;;;;;3.25;1.73;;;;;;;;;;621203;231;26630;-68
2022/10/02 14:04:56;;;;;;;6.32;1.95;;;;;;;;;;621209;231;26959;-67
2022/10/02 14:07:28;;;;;;;2.17;1.45;;;;;;;;;;621146;231;26574;-68
2022/10/02 14:10:13;;;;;;;2.00;1.58;;;;;;;;;;621507;231;26543;-68
2022/10/02 14:12:45;;;;;;;4.37;1.80;;;;;;;;;;620836;231;26586;-67
2022/10/02 14:15:19;;;;;;;2.67;1.40;;;;;;;;;;621094;231;26907;-67
2022/10/02 14:18:01;;;;;;;2.97;1.70;;;;;;;;;;621644;231;26609;-67
2022/10/02 14:20:36;;;;;;;2.78;1.52;;;;;;;;;;620876;231;26827;-67
2022/10/02 14:23:25;;;;;;;5.70;2.12;;;;;;;;;;621626;231;26648;-67
2022/10/02 14:26:06;;;;;;;2.65;1.42;;;;;;;;;;613182;230;26835;-69
2022/10/02 14:28:50;;;;;;;2.42;1.45;;;;;;;;;;621599;231;26824;-68
2022/10/02 14:31:25;;;;;;;4.65;1.62;;;;;;;;;;618012;230;26822;-67
2022/10/02 14:33:56;;;;;;;3.78;1.50;;;;;;;;;;621219;231;26880;-68
2022/10/02 14:36:24;;;;;;;3.20;1.70;;;;;;;;;;622006;229;26637;-68
2022/10/02 14:38:53;;;;;;;4.30;1.77;;;;;;;;;;622511;231;27150;-67
2022/10/02 14:41:23;;;;;;;4.25;1.83;;;;;;;;;;621819;231;26631;-67
2022/10/02 14:43:58;;;;;;;2.05;1.60;;;;;;;;;;621952;231;26634;-68
2022/10/02 14:46:41;;;;;;;3.28;1.62;;;;;;;;;;621663;231;26561;-67
2022/10/02 14:49:11;;;;;;;3.33;1.60;;;;;;;;;;621051;231;26577;-68
2022/10/02 14:51:45;;;;;;;2.33;1.25;;;;;;;;;;621918;231;26571;-68
2022/10/02 14:54:24;;;;;;;3.87;1.70;;;;;;;;;;621187;231;26868;-68
2022/10/02 14:56:57;;;;;;;2.28;1.60;;;;;;;;;;618877;231;26561;-68
2022/10/02 14:59:41;;;;;;;1.70;1.30;;;;;;;;;;620884;231;26567;-66
2022/10/02 15:02:11;;;;;;;3.75;1.40;;;;;;;;;;619695;226;26563;-66
2022/10/02 15:04:45;;;;;;;3.47;1.50;;;;;;;;;;618258;231;26582;-66
2022/10/02 15:07:15;;;;;;;4.00;1.37;;;;;;;;;;620918;231;26566;-66
2022/10/02 15:09:45;;;;;;;3.50;1.27;;;;;;;;;;621189;231;26582;-66
2022/10/02 15:12:14;;;;;;;1.73;1.20;;;;;;;;;;620625;231;26852;-66
2022/10/02 15:14:49;;;;;;;4.47;1.42;;;;;;;;;;620925;231;26647;-66
2022/10/02 15:19:59;;;;;;;2.35;1.75;;;;;;;;;;615626;231;26578;-66
2022/10/02 15:22:27;;;;;;;3.67;1.40;;;;;;;;;;615332;231;26822;-66
2022/10/02 15:24:56;;;;;;;3.40;1.40;;;;;;;;;;615579;231;26565;-69
2022/10/02 15:27:29;;;;;;;15.32;2.08;;;;;;;;;;615263;228;26568;-66